createdAt,value
2022-11-13T00:00:15.406Z,1.87
2022-11-13T00:00:45.760Z,1.87
2022-11-13T00:01:18.725Z,1.77
2022-11-13T00:01:49.321Z,1.77
2022-11-13T00:02:18.825Z,1.77
2022-11-13T00:02:49.820Z,1.77
2022-11-13T00:03:20.956Z,1.87
2022-11-13T00:03:52.030Z,1.87
2022-11-13T00:04:22.919Z,1.87
2022-11-13T00:04:54.126Z,1.87
2022-11-13T00:05:24.948Z,1.87
2022-11-13T00:05:56.466Z,1.87
2022-11-13T00:06:27.483Z,1.97
2022-11-13T00:06:59.778Z,2.07
2022-11-13T00:07:29.208Z,2.07
2022-11-13T00:08:31.332Z,2.07
2022-11-13T00:09:02.268Z,2.07
2022-11-13T00:09:33.043Z,2.07
2022-11-13T00:10:22.083Z,2.07
2022-11-13T00:10:34.631Z,2.07
2022-11-13T00:11:05.829Z,2.17
2022-11-13T00:11:37.971Z,2.27
2022-11-13T00:12:08.799Z,2.27
2022-11-13T00:12:39.842Z,2.27
2022-11-13T00:13:09.897Z,2.27
2022-11-13T00:13:42.017Z,2.27
2022-11-13T00:14:11.893Z,2.27
2022-11-13T00:14:43.220Z,2.27
2022-11-13T00:15:14.054Z,2.27
2022-11-13T00:15:44.933Z,2.37
2022-11-13T00:16:15.796Z,2.47
2022-11-13T00:16:48.129Z,2.57
2022-11-13T00:17:18.979Z,2.57
2022-11-13T00:18:19.815Z,2.57
2022-11-13T00:19:10.080Z,2.57
2022-11-13T00:19:21.751Z,2.57
2022-11-13T00:19:52.959Z,2.57
2022-11-13T00:20:24.318Z,2.57
2022-11-13T00:20:54.972Z,2.47
2022-11-13T00:21:25.813Z,2.47
2022-11-13T00:21:58.045Z,2.47
2022-11-13T00:22:29.580Z,2.47
2022-11-13T00:22:59.801Z,2.37
2022-11-13T00:23:30.658Z,2.37
2022-11-13T00:24:00.969Z,2.37
2022-11-13T00:24:31.989Z,2.37
2022-11-13T00:25:03.089Z,2.37
2022-11-13T00:25:33.789Z,2.37
2022-11-13T00:26:04.816Z,2.37
2022-11-13T00:26:35.676Z,2.37
2022-11-13T00:27:07.816Z,2.37
2022-11-13T00:27:55.204Z,2.37
2022-11-13T00:28:09.842Z,2.37
2022-11-13T00:28:42.065Z,2.37
2022-11-13T00:29:10.912Z,2.47
2022-11-13T00:29:42.082Z,2.47
2022-11-13T00:30:19.112Z,2.47
2022-11-13T00:30:43.969Z,2.47
2022-11-13T00:31:14.557Z,2.47
2022-11-13T00:31:45.983Z,2.47
2022-11-13T00:32:51.048Z,2.37
2022-11-13T00:33:37.896Z,2.37
2022-11-13T00:34:45.823Z,2.27
2022-11-13T00:34:52.144Z,2.17
2022-11-13T00:35:22.827Z,2.17
2022-11-13T00:35:54.314Z,2.07
2022-11-13T00:36:26.295Z,2.07
2022-11-13T00:36:55.931Z,2.07
2022-11-13T00:37:26.968Z,2.07
2022-11-13T00:37:59.156Z,1.97
2022-11-13T00:38:29.650Z,1.97
2022-11-13T00:39:00.073Z,1.97
2022-11-13T00:39:31.242Z,1.97
2022-11-13T00:40:03.265Z,1.97
2022-11-13T00:40:33.086Z,1.97
2022-11-13T00:41:04.073Z,1.97
2022-11-13T00:41:34.629Z,1.97
2022-11-13T00:42:05.935Z,1.97
2022-11-13T00:42:42.480Z,1.97
2022-11-13T00:43:09.501Z,1.87
2022-11-13T00:43:40.282Z,1.87
2022-11-13T00:44:10.804Z,1.87
2022-11-13T00:44:41.568Z,1.87
2022-11-13T00:45:15.645Z,1.97
2022-11-13T00:45:44.755Z,1.97
2022-11-13T00:46:13.811Z,2.07
2022-11-13T00:46:44.784Z,2.07
2022-11-13T00:47:16.180Z,2.07
2022-11-13T00:47:46.814Z,2.17
2022-11-13T00:48:18.452Z,2.27
2022-11-13T00:48:52.027Z,2.27
2022-11-13T00:49:22.026Z,2.27
2022-11-13T00:49:51.103Z,2.27
2022-11-13T00:50:21.720Z,2.37
2022-11-13T00:50:53.271Z,2.37
2022-11-13T00:51:23.907Z,2.57
2022-11-13T00:51:54.937Z,2.57
2022-11-13T00:52:26.199Z,2.57
2022-11-13T00:52:57.307Z,2.57
2022-11-13T00:53:29.871Z,2.47
2022-11-13T00:54:00.829Z,2.47
2022-11-13T00:54:52.982Z,2.47
2022-11-13T00:55:01.193Z,2.47
2022-11-13T00:55:31.982Z,2.66
2022-11-13T00:56:03.166Z,2.66
2022-11-13T00:56:34.094Z,2.76
2022-11-13T00:57:04.956Z,2.86
2022-11-13T00:57:36.261Z,2.96
2022-11-13T00:58:06.900Z,2.96
2022-11-13T00:58:39.631Z,2.96
2022-11-13T00:59:10.080Z,2.96
2022-11-13T00:59:41.283Z,2.96
2022-11-13T01:00:12.661Z,2.96
2022-11-13T01:00:41.900Z,2.96
2022-11-13T01:01:13.074Z,2.96
2022-11-13T01:01:43.709Z,2.96
2022-11-13T01:02:14.906Z,2.86
2022-11-13T01:02:45.716Z,2.86
2022-11-13T01:03:16.895Z,2.76
2022-11-13T01:03:49.308Z,2.76
2022-11-13T01:04:19.244Z,2.66
2022-11-13T01:04:50.132Z,2.66
2022-11-13T01:05:20.637Z,2.57
2022-11-13T01:05:51.779Z,2.57
2022-11-13T01:06:23.102Z,2.57
2022-11-13T01:06:53.860Z,2.47
2022-11-13T01:07:24.886Z,2.47
2022-11-13T01:07:55.916Z,2.37
2022-11-13T01:08:27.388Z,2.27
2022-11-13T01:08:59.365Z,2.27
2022-11-13T01:10:00.459Z,2.27
2022-11-13T01:10:36.649Z,2.17
2022-11-13T01:11:03.918Z,2.17
2022-11-13T01:13:40.058Z,1.87
2022-11-13T01:14:27.828Z,1.87
2022-11-13T01:14:42.844Z,1.87
2022-11-13T01:15:14.477Z,1.87
2022-11-13T01:15:47.477Z,1.77
2022-11-13T01:16:17.761Z,1.77
2022-11-13T01:16:57.322Z,1.67
2022-11-13T01:17:28.931Z,1.67
2022-11-13T01:17:47.597Z,1.67
2022-11-13T01:18:16.225Z,1.67
2022-11-13T01:18:46.827Z,1.67
2022-11-13T01:19:19.250Z,1.77
2022-11-13T01:19:49.764Z,1.97
2022-11-13T01:20:22.577Z,2.17
2022-11-13T01:20:52.790Z,2.27
2022-11-13T01:21:24.698Z,2.37
2022-11-13T01:21:54.900Z,2.47
2022-11-13T01:22:25.061Z,2.47
2022-11-13T01:22:55.034Z,2.47
2022-11-13T01:23:30.426Z,2.47
2022-11-13T01:23:58.447Z,2.47
2022-11-13T01:24:30.621Z,2.37
2022-11-13T01:25:01.919Z,2.27
2022-11-13T01:25:30.219Z,2.17
2022-11-13T01:26:05.062Z,2.17
2022-11-13T01:26:34.518Z,2.07
2022-11-13T01:27:05.426Z,1.97
2022-11-13T01:27:37.480Z,1.97
2022-11-13T01:28:06.083Z,1.97
2022-11-13T01:28:36.716Z,1.97
2022-11-13T01:29:07.742Z,1.97
2022-11-13T01:29:40.609Z,2.07
2022-11-13T01:30:10.841Z,2.27
2022-11-13T01:30:59.267Z,2.27
2022-11-13T01:31:13.196Z,2.27
2022-11-13T01:31:48.849Z,2.27
2022-11-13T01:32:15.680Z,2.27
2022-11-13T01:32:46.780Z,2.17
2022-11-13T01:33:29.814Z,2.17
2022-11-13T01:33:47.898Z,2.17
2022-11-13T01:34:17.340Z,2.17
2022-11-13T01:34:51.445Z,2.17
2022-11-13T01:35:20.037Z,2.27
2022-11-13T01:35:51.075Z,2.47
2022-11-13T01:36:22.220Z,2.66
2022-11-13T01:36:52.918Z,2.76
2022-11-13T01:37:25.504Z,2.76
2022-11-13T01:37:56.307Z,2.76
2022-11-13T01:38:27.227Z,2.76
2022-11-13T01:38:58.233Z,2.66
2022-11-13T01:39:27.793Z,2.57
2022-11-13T01:39:58.258Z,2.47
2022-11-13T01:40:29.183Z,2.37
2022-11-13T01:41:00.536Z,2.27
2022-11-13T01:41:31.331Z,2.27
2022-11-13T01:42:02.566Z,2.27
2022-11-13T01:42:35.764Z,2.17
2022-11-13T01:43:04.411Z,2.17
2022-11-13T01:43:35.587Z,2.17
2022-11-13T01:44:07.292Z,2.17
2022-11-13T01:44:37.569Z,2.17
2022-11-13T01:45:10.140Z,2.17
2022-11-13T01:45:39.851Z,2.17
2022-11-13T01:46:10.903Z,2.07
2022-11-13T01:46:48.417Z,2.07
2022-11-13T01:47:16.260Z,2.07
2022-11-13T01:47:45.484Z,2.07
2022-11-13T01:48:17.147Z,1.97
2022-11-13T01:48:47.316Z,1.97
2022-11-13T01:49:17.732Z,1.97
2022-11-13T01:49:50.035Z,1.97
2022-11-13T01:50:44.494Z,2.27
2022-11-13T01:50:50.234Z,2.47
2022-11-13T01:51:25.634Z,2.47
2022-11-13T01:51:52.151Z,2.47
2022-11-13T01:52:23.075Z,2.47
2022-11-13T01:52:55.656Z,2.47
2022-11-13T01:53:27.215Z,2.37
2022-11-13T01:53:56.882Z,2.37
2022-11-13T01:54:27.873Z,2.27
2022-11-13T01:54:58.756Z,2.27
2022-11-13T01:55:28.528Z,2.27
2022-11-13T01:55:59.782Z,2.27
2022-11-13T01:56:31.809Z,2.37
2022-11-13T01:57:02.120Z,2.37
2022-11-13T01:57:51.092Z,2.37
2022-11-13T01:58:03.645Z,2.37
2022-11-13T01:58:36.722Z,2.37
2022-11-13T01:59:06.971Z,2.27
2022-11-13T01:59:37.947Z,2.17
2022-11-13T02:00:11.504Z,2.17
2022-11-13T02:00:39.012Z,2.07
2022-11-13T02:01:10.816Z,1.97
2022-11-13T02:01:41.521Z,1.87
2022-11-13T02:02:11.877Z,1.87
2022-11-13T02:02:43.262Z,1.77
2022-11-13T02:03:14.815Z,1.77
2022-11-13T02:03:47.499Z,1.77
2022-11-13T02:04:17.888Z,1.67
2022-11-13T02:04:47.670Z,1.67
2022-11-13T02:05:48.979Z,1.57
2022-11-13T02:06:19.829Z,1.57
2022-11-13T02:06:50.700Z,1.57
2022-11-13T02:07:21.335Z,1.47
2022-11-13T02:07:53.195Z,1.37
2022-11-13T02:08:23.775Z,1.37
2022-11-13T02:08:55.688Z,1.37
2022-11-13T02:09:27.081Z,1.27
2022-11-13T02:09:57.719Z,1.27
2022-11-13T02:10:29.080Z,1.27
2022-11-13T02:10:59.071Z,1.17
2022-11-13T02:11:29.819Z,1.17
2022-11-13T02:12:00.768Z,1.17
2022-11-13T02:12:31.885Z,1.17
2022-11-13T02:13:03.089Z,1.17
2022-11-13T02:13:35.028Z,1.07
2022-11-13T02:14:07.031Z,1.07
2022-11-13T02:14:38.342Z,1.07
2022-11-13T02:15:09.176Z,.97
2022-11-13T02:15:56.762Z,.97
2022-11-13T02:16:09.046Z,.97
2022-11-13T02:16:39.994Z,.87
2022-11-13T02:17:11.049Z,.87
2022-11-13T02:17:42.843Z,.87
2022-11-13T02:18:12.810Z,.77
2022-11-13T02:18:46.533Z,.77
2022-11-13T02:19:15.157Z,.77
2022-11-13T02:19:48.247Z,.77
2022-11-13T02:20:19.270Z,.77
2022-11-13T02:20:53.490Z,.77
2022-11-13T02:21:18.489Z,.67
2022-11-13T02:21:50.062Z,.67
2022-11-13T02:22:20.694Z,.67
2022-11-13T02:22:52.684Z,.67
2022-11-13T02:23:22.855Z,.67
2022-11-13T02:23:55.624Z,.57
2022-11-13T02:24:45.316Z,.57
2022-11-13T02:24:58.171Z,.57
2022-11-13T02:25:27.902Z,.57
2022-11-13T02:25:58.722Z,.57
2022-11-13T02:26:29.106Z,.57
2022-11-13T02:26:59.851Z,.57
2022-11-13T02:28:01.638Z,.57
2022-11-13T02:28:32.513Z,.57
2022-11-13T02:29:03.502Z,.57
2022-11-13T02:29:36.179Z,.47
2022-11-13T02:30:07.569Z,.47
2022-11-13T02:30:37.577Z,.47
2022-11-13T02:31:38.600Z,.47
2022-11-13T02:32:10.431Z,.47
2022-11-13T02:32:41.320Z,.47
2022-11-13T02:33:12.475Z,.47
2022-11-13T02:33:43.081Z,.37
2022-11-13T02:34:13.957Z,.37
2022-11-13T02:34:44.946Z,.37
2022-11-13T02:35:17.952Z,.27
2022-11-13T02:35:52.485Z,.27
2022-11-13T02:36:18.512Z,.27
2022-11-13T02:36:48.782Z,.27
2022-11-13T02:37:19.621Z,.27
2022-11-13T02:37:50.811Z,.27
2022-11-13T02:38:21.423Z,.27
2022-11-13T02:38:52.346Z,.27
2022-11-13T02:39:23.357Z,.27
2022-11-13T02:39:55.773Z,.27
2022-11-13T02:40:29.048Z,.27
2022-11-13T02:40:56.866Z,.27
2022-11-13T02:41:27.804Z,.27
2022-11-13T02:41:59.558Z,.27
2022-11-13T02:42:30.194Z,.27
2022-11-13T02:43:00.697Z,.17
2022-11-13T02:43:33.682Z,.17
2022-11-13T02:44:02.478Z,.17
2022-11-13T02:44:33.369Z,.17
2022-11-13T02:45:07.211Z,.27
2022-11-13T02:45:37.831Z,.27
2022-11-13T02:46:08.109Z,.27
2022-11-13T02:46:38.582Z,.27
2022-11-13T02:47:09.612Z,.27
2022-11-13T02:47:40.074Z,.27
2022-11-13T02:48:10.589Z,.27
2022-11-13T02:48:41.792Z,.27
2022-11-13T02:49:12.836Z,.27
2022-11-13T02:49:43.634Z,.27
2022-11-13T02:50:17.789Z,.27
2022-11-13T02:50:45.627Z,.27
2022-11-13T02:51:18.504Z,.27
2022-11-13T02:51:48.010Z,.37
2022-11-13T02:52:18.858Z,.57
2022-11-13T02:52:49.964Z,.67
2022-11-13T02:53:20.827Z,.67
2022-11-13T02:53:51.523Z,.67
2022-11-13T02:54:23.010Z,.67
2022-11-13T02:54:58.781Z,.77
2022-11-13T02:55:24.492Z,.77
2022-11-13T02:55:56.839Z,.77
2022-11-13T02:56:28.160Z,.77
2022-11-13T02:56:58.853Z,.77
2022-11-13T02:57:28.759Z,.77
2022-11-13T02:58:00.049Z,.67
2022-11-13T02:58:31.469Z,.67
2022-11-13T02:59:02.222Z,.67
2022-11-13T02:59:32.174Z,.67
2022-11-13T03:00:21.750Z,.77
2022-11-13T03:00:34.627Z,.87
2022-11-13T03:01:06.382Z,.97
2022-11-13T03:01:39.849Z,.97
2022-11-13T03:02:08.080Z,.97
2022-11-13T03:02:38.740Z,1.07
2022-11-13T03:03:10.047Z,1.17
2022-11-13T03:03:57.142Z,1.27
2022-11-13T03:04:11.562Z,1.27
2022-11-13T03:05:14.242Z,1.37
2022-11-13T03:05:44.522Z,1.37
2022-11-13T03:06:17.748Z,1.37
2022-11-13T03:06:48.268Z,1.37
2022-11-13T03:07:21.134Z,1.37
2022-11-13T03:07:49.128Z,1.37
2022-11-13T03:08:19.300Z,1.37
2022-11-13T03:08:50.837Z,1.37
2022-11-13T03:09:38.523Z,1.37
2022-11-13T03:09:53.619Z,1.37
2022-11-13T03:10:23.380Z,1.27
2022-11-13T03:10:54.794Z,1.27
2022-11-13T03:11:26.507Z,1.27
2022-11-13T03:11:56.556Z,1.27
2022-11-13T03:12:28.820Z,1.27
2022-11-13T03:12:58.581Z,1.27
2022-11-13T03:13:29.447Z,1.27
2022-11-13T03:14:02.037Z,1.27
2022-11-13T03:14:32.000Z,1.37
2022-11-13T03:15:03.112Z,1.37
2022-11-13T03:15:33.380Z,1.47
2022-11-13T03:16:04.869Z,1.47
2022-11-13T03:16:35.626Z,1.47
2022-11-13T03:17:08.245Z,1.47
2022-11-13T03:17:38.336Z,1.47
2022-11-13T03:18:28.539Z,1.37
2022-11-13T03:19:03.665Z,1.37
2022-11-13T03:19:11.545Z,1.37
2022-11-13T03:19:41.691Z,1.37
2022-11-13T03:20:13.427Z,1.27
2022-11-13T03:20:43.443Z,1.27
2022-11-13T03:21:14.749Z,1.17
2022-11-13T03:21:48.499Z,1.17
2022-11-13T03:22:17.435Z,1.17
2022-11-13T03:22:54.468Z,1.17
2022-11-13T03:23:18.948Z,1.17
2022-11-13T03:23:49.640Z,1.07
2022-11-13T03:24:20.635Z,1.07
2022-11-13T03:24:54.761Z,1.07
2022-11-13T03:25:22.682Z,1.07
2022-11-13T03:25:53.554Z,.97
2022-11-13T03:26:24.475Z,.97
2022-11-13T03:27:12.845Z,.97
2022-11-13T03:27:27.740Z,.87
2022-11-13T03:27:58.173Z,.87
2022-11-13T03:28:29.238Z,.87
2022-11-13T03:28:59.816Z,.87
2022-11-13T03:29:30.507Z,.87
2022-11-13T03:30:02.375Z,.87
2022-11-13T03:30:32.779Z,.77
2022-11-13T03:31:03.631Z,.77
2022-11-13T03:31:34.931Z,.77
2022-11-13T03:32:07.158Z,.77
2022-11-13T03:32:38.768Z,.77
2022-11-13T03:33:09.073Z,.77
2022-11-13T03:33:42.694Z,.77
2022-11-13T03:34:09.711Z,.77
2022-11-13T03:34:40.807Z,.77
2022-11-13T03:35:11.845Z,.77
2022-11-13T03:35:46.759Z,.77
2022-11-13T03:36:13.367Z,.77
2022-11-13T03:36:44.613Z,.67
2022-11-13T03:37:15.500Z,.67
2022-11-13T03:37:48.839Z,.67
2022-11-13T03:38:19.113Z,.67
2022-11-13T03:38:49.187Z,.57
2022-11-13T03:39:19.581Z,.57
2022-11-13T03:39:50.764Z,.57
2022-11-13T03:40:22.621Z,.57
2022-11-13T03:40:54.194Z,.57
2022-11-13T03:41:23.550Z,.57
2022-11-13T03:41:55.181Z,.57
2022-11-13T03:42:25.675Z,.47
2022-11-13T03:42:58.354Z,.47
2022-11-13T03:43:29.212Z,.47
2022-11-13T03:43:59.198Z,.47
2022-11-13T03:44:29.822Z,.47
2022-11-13T03:45:06.679Z,.37
2022-11-13T03:45:32.576Z,.27
2022-11-13T03:46:02.972Z,.27
2022-11-13T03:46:33.719Z,.27
2022-11-13T03:47:05.055Z,.27
2022-11-13T03:47:35.871Z,.27
2022-11-13T03:48:07.947Z,.17
2022-11-13T03:48:38.117Z,.17
2022-11-13T03:49:09.480Z,.07
2022-11-13T03:49:40.051Z,.07
2022-11-13T03:50:11.472Z,.07
2022-11-13T03:50:45.436Z,.07
2022-11-13T03:51:12.595Z,.07
2022-11-13T03:52:01.299Z,.07
2022-11-13T03:52:32.512Z,.07
2022-11-13T03:53:04.042Z,.07
2022-11-13T03:53:19.734Z,.07
2022-11-13T03:53:49.024Z,.07
2022-11-13T03:54:19.967Z,.07
2022-11-13T03:54:49.883Z,.07
2022-11-13T03:55:20.939Z,.07
2022-11-13T03:55:52.075Z,.07
2022-11-13T03:56:22.630Z,.07
2022-11-13T03:56:54.080Z,-.02
2022-11-13T03:57:24.856Z,-.02
2022-11-13T03:57:55.660Z,-.02
2022-11-13T03:58:28.398Z,.07
2022-11-13T03:58:58.981Z,.07
2022-11-13T03:59:28.964Z,.07
2022-11-13T03:59:59.787Z,.07
2022-11-13T04:00:31.069Z,.07
2022-11-13T04:01:02.236Z,.17
2022-11-13T04:01:33.176Z,.17
2022-11-13T04:02:03.753Z,.17
2022-11-13T04:02:34.532Z,.17
2022-11-13T04:03:05.718Z,.27
2022-11-13T04:03:38.821Z,.27
2022-11-13T04:04:08.546Z,.37
2022-11-13T04:04:38.939Z,.37
2022-11-13T04:05:09.760Z,.37
2022-11-13T04:05:40.804Z,.37
2022-11-13T04:06:12.276Z,.37
2022-11-13T04:06:42.762Z,.37
2022-11-13T04:07:14.034Z,.37
2022-11-13T04:07:44.994Z,.37
2022-11-13T04:08:15.714Z,.37
2022-11-13T04:08:49.501Z,.37
2022-11-13T04:09:19.241Z,.37
2022-11-13T04:09:50.136Z,.27
2022-11-13T04:10:20.947Z,.27
2022-11-13T04:10:50.901Z,.27
2022-11-13T04:11:22.348Z,.27
2022-11-13T04:11:53.841Z,.17
2022-11-13T04:12:24.215Z,.17
2022-11-13T04:13:00.434Z,.27
2022-11-13T04:13:25.560Z,.27
2022-11-13T04:13:58.622Z,.37
2022-11-13T04:14:29.374Z,.37
2022-11-13T04:15:00.153Z,.37
2022-11-13T04:15:31.428Z,.27
2022-11-13T04:16:00.866Z,.27
2022-11-13T04:16:32.205Z,.27
2022-11-13T04:17:03.233Z,.17
2022-11-13T04:17:33.810Z,.17
2022-11-13T04:18:04.759Z,.17
2022-11-13T04:18:36.112Z,.27
2022-11-13T04:19:07.453Z,.37
2022-11-13T04:19:39.173Z,.37
2022-11-13T04:20:10.125Z,.37
2022-11-13T04:20:39.863Z,.37
2022-11-13T04:21:10.928Z,.37
2022-11-13T04:21:44.301Z,.37
2022-11-13T04:22:12.967Z,.37
2022-11-13T04:22:43.761Z,.27
2022-11-13T04:23:14.757Z,.27
2022-11-13T04:23:46.140Z,.27
2022-11-13T04:24:17.271Z,.27
2022-11-13T04:24:49.658Z,.27
2022-11-13T04:25:20.276Z,.17
2022-11-13T04:25:50.657Z,.17
2022-11-13T04:26:20.800Z,.17
2022-11-13T04:26:52.018Z,.17
2022-11-13T04:27:22.976Z,.07
2022-11-13T04:27:54.463Z,.07
2022-11-13T04:28:55.924Z,.07
2022-11-13T04:29:28.360Z,-.02
2022-11-13T04:29:59.540Z,-.02
2022-11-13T04:30:29.651Z,-.02
2022-11-13T04:31:00.952Z,-.02
2022-11-13T04:31:31.803Z,-.02
2022-11-13T04:32:14.515Z,-.12
2022-11-13T04:32:33.180Z,-.12
2022-11-13T04:33:04.267Z,-.12
2022-11-13T04:33:35.269Z,-.12
2022-11-13T04:34:06.006Z,-.22
2022-11-13T04:34:38.830Z,-.22
2022-11-13T04:35:10.338Z,-.22
2022-11-13T04:35:40.535Z,-.22
2022-11-13T04:36:11.978Z,-.22
2022-11-13T04:36:41.258Z,-.02
2022-11-13T04:37:12.341Z,-.02
2022-11-13T04:37:43.051Z,-.02
2022-11-13T04:38:14.127Z,-.02
2022-11-13T04:38:45.069Z,-.02
2022-11-13T04:39:15.894Z,.07
2022-11-13T04:39:47.984Z,.07
2022-11-13T04:40:21.892Z,.07
2022-11-13T04:40:50.071Z,.07
2022-11-13T04:41:20.160Z,.07
2022-11-13T04:41:55.373Z,.07
2022-11-13T04:42:23.218Z,.07
2022-11-13T04:42:53.788Z,.07
2022-11-13T04:43:24.065Z,.07
2022-11-13T04:43:55.114Z,.07
2022-11-13T04:44:25.930Z,.07
2022-11-13T04:44:57.656Z,.07
2022-11-13T04:45:30.267Z,.07
2022-11-13T04:45:59.774Z,.07
2022-11-13T04:46:30.931Z,.07
2022-11-13T04:47:00.881Z,.07
2022-11-13T04:48:03.089Z,.07
2022-11-13T04:48:34.174Z,.17
2022-11-13T04:49:05.080Z,.17
2022-11-13T04:49:35.703Z,.17
2022-11-13T04:50:07.658Z,.17
2022-11-13T04:50:39.884Z,.17
2022-11-13T04:51:10.870Z,.17
2022-11-13T04:51:40.488Z,.17
2022-11-13T04:52:11.086Z,.07
2022-11-13T04:52:42.248Z,.07
2022-11-13T04:53:13.383Z,.07
2022-11-13T04:53:44.634Z,.07
2022-11-13T04:54:15.032Z,.07
2022-11-13T04:54:46.145Z,.17
2022-11-13T04:55:17.103Z,.17
2022-11-13T04:55:49.663Z,.17
2022-11-13T04:56:20.016Z,.17
2022-11-13T04:56:50.000Z,.17
2022-11-13T04:57:23.066Z,.17
2022-11-13T04:57:52.653Z,.17
2022-11-13T04:58:23.127Z,.17
2022-11-13T04:58:54.353Z,.17
2022-11-13T04:59:25.142Z,.17
2022-11-13T04:59:56.069Z,.07
2022-11-13T05:00:27.318Z,.07
2022-11-13T05:00:57.876Z,.07
2022-11-13T05:01:29.595Z,-.02
2022-11-13T05:01:59.800Z,-.02
2022-11-13T05:02:31.067Z,-.02
2022-11-13T05:03:02.568Z,-.02
2022-11-13T05:03:33.191Z,-.02
2022-11-13T05:04:08.164Z,-.02
2022-11-13T05:04:37.023Z,-.02
2022-11-13T05:05:05.837Z,-.02
2022-11-13T05:05:36.944Z,-.02
2022-11-13T05:06:08.878Z,-.02
2022-11-13T05:06:39.601Z,-.02
2022-11-13T05:07:10.631Z,-.02
2022-11-13T05:07:41.260Z,-.02
2022-11-13T05:08:11.963Z,-.02
2022-11-13T05:08:43.465Z,-.02
2022-11-13T05:09:14.117Z,-.12
2022-11-13T05:09:44.751Z,-.12
2022-11-13T05:10:18.822Z,-.12
2022-11-13T05:10:47.555Z,-.12
2022-11-13T05:11:18.840Z,-.12
2022-11-13T05:11:49.508Z,-.12
2022-11-13T05:12:21.624Z,-.12
2022-11-13T05:12:51.168Z,-.12
2022-11-13T05:13:22.108Z,-.22
2022-11-13T05:13:53.352Z,-.22
2022-11-13T05:14:24.098Z,-.22
2022-11-13T05:14:55.044Z,-.22
2022-11-13T05:15:26.104Z,-.22
2022-11-13T05:15:57.762Z,-.22
2022-11-13T05:16:29.157Z,-.32
2022-11-13T05:16:59.308Z,-.32
2022-11-13T05:17:30.120Z,-.32
2022-11-13T05:18:01.382Z,-.32
2022-11-13T05:18:32.277Z,-.32
2022-11-13T05:19:34.882Z,-.32
2022-11-13T05:20:05.629Z,-.32
2022-11-13T05:20:54.172Z,-.32
2022-11-13T05:21:08.163Z,-.32
2022-11-13T05:21:38.862Z,-.32
2022-11-13T05:22:08.889Z,-.42
2022-11-13T05:22:40.212Z,-.42
2022-11-13T05:23:11.343Z,-.42
2022-11-13T05:24:18.169Z,-.42
2022-11-13T05:24:44.159Z,-.42
2022-11-13T05:25:15.284Z,-.42
2022-11-13T05:25:46.086Z,-.52
2022-11-13T05:26:18.662Z,-.52
2022-11-13T05:26:49.693Z,-.52
2022-11-13T05:27:21.042Z,-.52
2022-11-13T05:27:51.035Z,-.52
2022-11-13T05:28:20.985Z,-.52
2022-11-13T05:28:53.538Z,-.52
2022-11-13T05:29:23.761Z,-.52
2022-11-13T05:29:54.724Z,-.52
2022-11-13T05:30:25.468Z,-.52
2022-11-13T05:30:55.884Z,-.52
2022-11-13T05:31:59.290Z,-.52
2022-11-13T05:32:46.126Z,-.62
2022-11-13T05:33:00.103Z,-.62
2022-11-13T05:33:30.930Z,-.62
2022-11-13T05:34:05.785Z,-.62
2022-11-13T05:34:38.014Z,-.62
2022-11-13T05:35:04.921Z,-.62
2022-11-13T05:35:36.343Z,-.62
2022-11-13T05:36:06.263Z,-.62
2022-11-13T05:36:39.396Z,-.62
2022-11-13T05:37:08.050Z,-.62
2022-11-13T05:37:43.483Z,-.62
2022-11-13T05:38:11.519Z,-.62
2022-11-13T05:38:41.306Z,-.62
2022-11-13T05:39:13.409Z,-.62
2022-11-13T05:39:43.478Z,-.62
2022-11-13T05:40:16.421Z,-.62
2022-11-13T05:40:45.310Z,-.62
2022-11-13T05:41:16.490Z,-.62
2022-11-13T05:41:49.101Z,-.62
2022-11-13T05:42:18.708Z,-.52
2022-11-13T05:42:52.139Z,-.42
2022-11-13T05:43:20.090Z,-.42
2022-11-13T05:43:56.509Z,-.42
2022-11-13T05:49:32.489Z,-.62
2022-11-13T05:50:04.072Z,-.72
2022-11-13T05:50:34.588Z,-.72
2022-11-13T05:51:05.501Z,-.72
2022-11-13T05:51:36.131Z,-.72
2022-11-13T05:52:08.683Z,-.72
2022-11-13T05:52:44.774Z,-.72
2022-11-13T05:53:09.290Z,-.82
2022-11-13T05:53:40.607Z,-.82
2022-11-13T05:54:11.034Z,-.82
2022-11-13T05:54:42.230Z,-.82
2022-11-13T05:55:13.561Z,-.72
2022-11-13T05:55:44.417Z,-.72
2022-11-13T05:56:15.256Z,-.72
2022-11-13T05:56:45.921Z,-.72
2022-11-13T05:57:19.135Z,-.72
2022-11-13T05:57:49.113Z,-.72
2022-11-13T05:58:19.498Z,-.72
2022-11-13T05:58:50.303Z,-.72
2022-11-13T05:59:22.085Z,-.72
2022-11-13T05:59:51.879Z,-.82
2022-11-13T06:00:24.676Z,-.82
2022-11-13T06:00:53.912Z,-.82
2022-11-13T06:01:57.742Z,-.82
2022-11-13T06:02:28.552Z,-.92
2022-11-13T06:02:59.043Z,-.92
2022-11-13T06:03:29.694Z,-.92
2022-11-13T06:04:12.409Z,-.92
2022-11-13T06:04:34.500Z,-.92
2022-11-13T06:05:02.380Z,-.92
2022-11-13T06:05:33.657Z,-.92
2022-11-13T06:06:04.475Z,-.92
2022-11-13T06:06:35.552Z,-.92
2022-11-13T06:07:06.572Z,-.82
2022-11-13T06:07:48.999Z,-.62
2022-11-13T06:08:08.903Z,-.52
2022-11-13T06:08:50.693Z,-.42
2022-11-13T06:09:10.280Z,-.32
2022-11-13T06:09:43.110Z,-.32
2022-11-13T06:10:14.826Z,-.32
2022-11-13T06:10:49.988Z,-.42
2022-11-13T06:11:13.975Z,-.52
2022-11-13T06:11:45.151Z,-.52
2022-11-13T06:12:16.125Z,-.52
2022-11-13T06:12:48.367Z,-.62
2022-11-13T06:13:18.571Z,-.62
2022-11-13T06:13:49.253Z,-.72
2022-11-13T06:14:20.147Z,-.72
2022-11-13T06:14:51.253Z,-.72
2022-11-13T06:15:34.362Z,-.72
2022-11-13T06:15:53.579Z,-.72
2022-11-13T06:16:24.328Z,-.82
2022-11-13T06:16:55.490Z,-.82
2022-11-13T06:17:27.187Z,-.82
2022-11-13T06:17:58.800Z,-.82
2022-11-13T06:18:29.474Z,-.82
2022-11-13T06:19:08.066Z,-.82
2022-11-13T06:19:31.255Z,-.82
2022-11-13T06:20:05.712Z,-.92
2022-11-13T06:20:34.752Z,-.92
2022-11-13T06:21:03.594Z,-.92
2022-11-13T06:21:34.550Z,-.92
2022-11-13T06:22:37.154Z,-.92
2022-11-13T06:23:08.614Z,-.92
2022-11-13T06:23:42.553Z,-.82
2022-11-13T06:24:09.232Z,-.82
2022-11-13T06:24:40.300Z,-.82
2022-11-13T06:25:11.291Z,-.82
2022-11-13T06:25:42.133Z,-.82
2022-11-13T06:26:13.710Z,-.72
2022-11-13T06:26:44.287Z,-.72
2022-11-13T06:27:15.341Z,-.72
2022-11-13T06:27:47.485Z,-.72
2022-11-13T06:28:19.459Z,-.72
2022-11-13T06:28:49.484Z,-.72
2022-11-13T06:29:19.567Z,-.72
2022-11-13T06:29:50.399Z,-.72
2022-11-13T06:30:22.390Z,-.72
2022-11-13T06:30:54.173Z,-.72
2022-11-13T06:31:23.612Z,-.72
2022-11-13T06:31:55.040Z,-.82
2022-11-13T06:32:25.225Z,-.82
2022-11-13T06:32:56.775Z,-.82
2022-11-13T06:33:29.012Z,-.82
2022-11-13T06:33:58.839Z,-.82
2022-11-13T06:34:29.771Z,-.82
2022-11-13T06:35:00.500Z,-.82
2022-11-13T06:35:31.383Z,-.92
2022-11-13T06:36:07.537Z,-.92
2022-11-13T06:36:34.148Z,-.92
2022-11-13T06:37:04.494Z,-.92
2022-11-13T06:37:35.306Z,-.92
2022-11-13T06:38:06.253Z,-.92
2022-11-13T06:38:39.057Z,-.92
2022-11-13T06:39:09.511Z,-.92
2022-11-13T06:39:39.866Z,-.92
2022-11-13T06:40:10.927Z,-1.02
2022-11-13T06:40:41.191Z,-1.02
2022-11-13T06:41:12.421Z,-.92
2022-11-13T06:41:43.817Z,-.92
2022-11-13T06:42:14.389Z,-.92
2022-11-13T06:42:45.117Z,-.82
2022-11-13T06:43:38.740Z,-.82
2022-11-13T06:43:49.606Z,-.82
2022-11-13T06:44:34.486Z,-.82
2022-11-13T06:44:49.379Z,-.82
2022-11-13T06:45:20.942Z,-.82
2022-11-13T06:45:51.559Z,-.82
2022-11-13T06:46:22.137Z,-.82
2022-11-13T06:46:53.447Z,-.82
2022-11-13T06:47:24.253Z,-.82
2022-11-13T06:47:56.774Z,-.82
2022-11-13T06:48:31.727Z,-.82
2022-11-13T06:48:58.853Z,-.82
2022-11-13T06:49:35.458Z,-.82
2022-11-13T06:50:30.423Z,-.82
2022-11-13T06:51:01.530Z,-.82
2022-11-13T06:51:50.196Z,-.82
2022-11-13T06:52:04.540Z,-.82
2022-11-13T06:52:34.755Z,-.82
2022-11-13T06:53:05.266Z,-.82
2022-11-13T06:53:36.173Z,-.82
2022-11-13T06:54:08.801Z,-.82
2022-11-13T06:54:39.386Z,-.82
2022-11-13T06:55:10.816Z,-.82
2022-11-13T06:55:40.675Z,-.82
2022-11-13T06:56:11.395Z,-.72
2022-11-13T06:56:42.443Z,-.72
2022-11-13T06:57:20.615Z,-.62
2022-11-13T06:57:44.752Z,-.62
2022-11-13T06:58:15.305Z,-.62
2022-11-13T06:58:46.497Z,-.62
2022-11-13T06:59:18.663Z,-.62
2022-11-13T06:59:49.628Z,-.62
2022-11-13T07:00:40.252Z,-.62
2022-11-13T07:00:50.549Z,-.62
2022-11-13T07:01:21.697Z,-.62
2022-11-13T07:01:52.362Z,-.62
2022-11-13T07:02:24.131Z,-.62
2022-11-13T07:02:54.356Z,-.62
2022-11-13T07:03:26.416Z,-.62
2022-11-13T07:03:58.284Z,-.62
2022-11-13T07:04:29.027Z,-.62
2022-11-13T07:04:59.011Z,-.62
2022-11-13T07:05:29.784Z,-.62
2022-11-13T07:06:00.686Z,-.62
2022-11-13T07:06:34.976Z,-.62
2022-11-13T07:07:02.733Z,-.62
2022-11-13T07:07:54.475Z,-.62
2022-11-13T07:08:04.715Z,-.72
2022-11-13T07:08:35.424Z,-.72
2022-11-13T07:09:39.094Z,-.82
2022-11-13T07:10:10.499Z,-.82
2022-11-13T07:10:40.205Z,-.82
2022-11-13T07:11:10.606Z,-.82
2022-11-13T07:11:46.320Z,-.82
2022-11-13T07:12:12.967Z,-.82
2022-11-13T07:13:42.315Z,-.92
2022-11-13T07:13:45.591Z,-.92